Current | Forecast
Updated: 2:30 PM +04 on October 19, 2017
Observed at Saint Denis, Reunion Island
Temperature 26°C
Humidity 65%
Dew Point 19°C
Wind North at 6 km/h
Pressure 1016 hPa (Steady)
Conditions Scattered Clouds
Visibility 10.0 kilometers
UV 8 out of 16
Clouds Scattered Clouds (SCT) : 701 m
Scattered Clouds (SCT) : 1005 m
Yesterday's Maximum 27°C
Yesterday's Minimum 22°C approx.
Yesterday's Cooling Degree Days 11 approx.
Sunrise5:43 AM +04
Sunset6:22 PM +04
Moon Rise5:33 AM +04
Moon Set6:07 PM +04
Moon PhaseMoon Phase
Waning Crescent
Raw METARMETAR FMEE 191030Z 36003KT 9999 SCT023 SCT033 26/19 Q1016 NOSIG


Monday
. High: 82° F.
Tuesday
. High: 84° F.
Wednesday
. High: 84° F.
Thursday
. High: 84° F.
Friday
. High: 86° F.
Saturday
. High: 86° F.
Sunday
. High: 86° F.
Monday
. High: 84° F.

Units: English | Metric

Find the Weather for any City, State or Zipcode, or Country:

U.S. State List | Severe Weather | Tropical Storms | Ski Conditions
United States | Canada | Central America | South America | Asia | Europe | Australia | Africa | Islands

Weather Underground

© Copyright 2017
The Weather Company, LLC